Time;durP1;ratioP1;P1;durP2;ratioP2;P2;SDS_P1;SDS_P2;PMS_P1;PMS_P2;Temp;Humidity;BMP_temperature;BMP_pressure;BME280_temperature;BME280_humidity;BME280_pressure;Samples;Min_cycle;Max_cycle;Signal;HPM_P1;HPM_P2
2023/12/10 00:00:04;;;;;;;20.98;4.82;;;;;;;;;;4979854;28;20891;-80
2023/12/10 00:02:30;;;;;;;20.83;5.05;;;;;;;;;;4979789;28;20572;-80
2023/12/10 00:04:56;;;;;;;33.75;5.53;;;;;;;;;;4979589;28;20182;-81
2023/12/10 00:07:22;;;;;;;25.47;5.33;;;;;;;;;;4979611;28;20228;-80
2023/12/10 00:09:48;;;;;;;29.17;5.80;;;;;;;;;;4979844;28;20441;-81
2023/12/10 00:12:14;;;;;;;33.42;6.40;;;;;;;;;;4979759;28;20416;-80
2023/12/10 00:14:40;;;;;;;27.20;5.07;;;;;;;;;;4979537;28;20188;-80
2023/12/10 00:17:06;;;;;;;25.88;4.68;;;;;;;;;;4978796;28;20212;-81
2023/12/10 00:19:33;;;;;;;29.93;6.10;;;;;;;;;;4978330;28;20211;-80
2023/12/10 00:21:59;;;;;;;19.30;6.18;;;;;;;;;;4979469;28;20415;-81
2023/12/10 00:24:25;;;;;;;23.10;5.30;;;;;;;;;;4979184;28;20195;-81
2023/12/10 00:26:52;;;;;;;27.70;5.50;;;;;;;;;;4979656;28;20184;-83
2023/12/10 00:29:18;;;;;;;23.65;5.60;;;;;;;;;;4980042;28;20211;-80
2023/12/10 00:31:44;;;;;;;32.63;6.10;;;;;;;;;;4979139;28;20180;-81
2023/12/10 00:34:10;;;;;;;22.90;5.10;;;;;;;;;;4961923;28;20686;-82
2023/12/10 00:36:36;;;;;;;28.88;5.72;;;;;;;;;;4978054;28;20184;-81
2023/12/10 00:39:06;;;;;;;25.93;4.83;;;;;;;;;;4979276;28;20172;-81
2023/12/10 00:41:32;;;;;;;16.25;3.97;;;;;;;;;;4979160;28;20551;-80
2023/12/10 00:43:58;;;;;;;22.83;6.30;;;;;;;;;;4979185;28;20184;-81
2023/12/10 00:46:24;;;;;;;24.90;6.22;;;;;;;;;;4979094;28;20230;-80
2023/12/10 00:48:50;;;;;;;28.73;6.57;;;;;;;;;;4979241;28;20190;-80
2023/12/10 00:51:19;;;;;;;23.43;5.30;;;;;;;;;;4979042;28;20419;-80
2023/12/10 00:53:46;;;;;;;28.02;5.15;;;;;;;;;;4979215;28;20510;-80
2023/12/10 00:56:12;;;;;;;39.47;6.13;;;;;;;;;;4979195;28;20183;-80
2023/12/10 00:58:38;;;;;;;22.80;6.03;;;;;;;;;;4978647;28;20181;-80
2023/12/10 01:01:04;;;;;;;28.60;4.13;;;;;;;;;;4978914;28;20500;-80
2023/12/10 01:03:30;;;;;;;19.65;4.80;;;;;;;;;;4979123;28;20192;-80
2023/12/10 01:05:56;;;;;;;26.37;5.00;;;;;;;;;;4979206;28;20533;-81
2023/12/10 01:08:22;;;;;;;29.93;6.10;;;;;;;;;;4978402;28;20475;-80
2023/12/10 01:10:48;;;;;;;20.13;5.22;;;;;;;;;;4978798;28;20768;-80
2023/12/10 01:13:14;;;;;;;21.33;5.90;;;;;;;;;;4978038;28;20216;-79
2023/12/10 01:15:40;;;;;;;10.52;3.42;;;;;;;;;;4978760;28;20203;-80
2023/12/10 01:18:06;;;;;;;22.17;4.22;;;;;;;;;;4977986;28;20180;-80
2023/12/10 01:20:33;;;;;;;20.30;4.90;;;;;;;;;;4978719;28;20183;-79
2023/12/10 01:22:59;;;;;;;18.85;4.28;;;;;;;;;;4978378;28;20911;-79
2023/12/10 01:25:26;;;;;;;21.45;5.15;;;;;;;;;;4978768;28;20176;-79
2023/12/10 01:27:52;;;;;;;17.60;4.20;;;;;;;;;;4978748;28;20185;-81
2023/12/10 01:30:23;;;;;;;19.42;3.88;;;;;;;;;;4978100;28;20645;-80
2023/12/10 01:32:49;;;;;;;25.80;5.03;;;;;;;;;;4978062;28;20228;-79
2023/12/10 01:35:15;;;;;;;19.53;4.17;;;;;;;;;;4978175;28;20227;-80
2023/12/10 01:37:41;;;;;;;22.67;4.75;;;;;;;;;;4977200;28;20919;-79
2023/12/10 01:40:08;;;;;;;18.47;4.27;;;;;;;;;;4978975;28;20187;-79
2023/12/10 01:42:34;;;;;;;20.02;4.00;;;;;;;;;;4978341;28;20771;-80
2023/12/10 01:45:01;;;;;;;19.30;4.65;;;;;;;;;;4978027;28;20223;-80
2023/12/10 01:47:28;;;;;;;20.92;5.55;;;;;;;;;;4978460;28;20203;-80
2023/12/10 01:49:55;;;;;;;26.67;4.60;;;;;;;;;;4977927;28;20255;-80
2023/12/10 01:52:22;;;;;;;28.90;5.28;;;;;;;;;;4977903;28;20268;-80
2023/12/10 01:54:48;;;;;;;16.40;3.97;;;;;;;;;;4977878;28;20519;-79
2023/12/10 01:57:15;;;;;;;22.25;3.83;;;;;;;;;;4977903;28;20243;-80
2023/12/10 01:59:41;;;;;;;26.23;4.07;;;;;;;;;;4977911;28;20199;-80
2023/12/10 02:02:07;;;;;;;15.65;4.03;;;;;;;;;;4977481;28;20590;-80
2023/12/10 02:04:33;;;;;;;19.10;4.32;;;;;;;;;;4977723;28;20218;-80
2023/12/10 02:07:00;;;;;;;15.30;4.30;;;;;;;;;;4977477;28;20743;-80
2023/12/10 02:09:26;;;;;;;17.92;4.18;;;;;;;;;;4977909;28;20187;-81
2023/12/10 02:11:53;;;;;;;19.52;3.70;;;;;;;;;;4977469;28;20246;-79
2023/12/10 02:14:19;;;;;;;19.58;3.90;;;;;;;;;;4977094;28;20222;-80
2023/12/10 02:16:45;;;;;;;18.53;4.17;;;;;;;;;;4977900;28;20181;-80
2023/12/10 02:19:11;;;;;;;20.73;5.20;;;;;;;;;;4977627;28;20423;-81
2023/12/10 02:21:38;;;;;;;15.33;3.23;;;;;;;;;;4977767;28;20415;-79
2023/12/10 02:24:05;;;;;;;17.17;4.10;;;;;;;;;;4977254;28;20502;-80
2023/12/10 02:26:32;;;;;;;19.02;3.67;;;;;;;;;;4977513;28;20239;-84
2023/12/10 02:28:58;;;;;;;15.90;3.95;;;;;;;;;;4977011;28;20565;-79
2023/12/10 02:31:25;;;;;;;17.02;4.22;;;;;;;;;;4977237;28;20172;-81
2023/12/10 02:33:51;;;;;;;16.92;3.85;;;;;;;;;;4977259;28;20208;-81
2023/12/10 02:36:17;;;;;;;18.52;3.20;;;;;;;;;;4976728;28;20689;-81
2023/12/10 02:38:44;;;;;;;16.80;3.80;;;;;;;;;;4977019;28;20218;-80
2023/12/10 02:41:10;;;;;;;17.00;3.42;;;;;;;;;;4976778;28;20438;-81
2023/12/10 02:43:36;;;;;;;8.40;3.15;;;;;;;;;;4977008;28;20212;-81
2023/12/10 02:46:03;;;;;;;16.17;3.90;;;;;;;;;;4976969;28;20346;-81
2023/12/10 02:48:28;;;;;;;21.92;3.92;;;;;;;;;;4977280;28;20211;-81
2023/12/10 02:50:57;;;;;;;13.43;3.20;;;;;;;;;;4976899;28;20183;-81
2023/12/10 02:53:23;;;;;;;10.57;2.50;;;;;;;;;;4976507;28;20478;-81
2023/12/10 02:55:49;;;;;;;9.93;3.30;;;;;;;;;;4976538;28;20180;-81
2023/12/10 02:58:15;;;;;;;16.45;4.05;;;;;;;;;;4976571;28;20183;-81
2023/12/10 03:00:42;;;;;;;10.83;3.57;;;;;;;;;;4976813;28;20177;-82
2023/12/10 03:03:08;;;;;;;21.00;4.00;;;;;;;;;;4976302;28;20791;-81
2023/12/10 03:05:34;;;;;;;9.80;3.25;;;;;;;;;;4976812;28;20184;-81
2023/12/10 03:08:00;;;;;;;16.45;3.38;;;;;;;;;;4976724;28;20700;-81
2023/12/10 03:10:26;;;;;;;16.42;4.25;;;;;;;;;;4975774;28;20175;-81
2023/12/10 03:12:52;;;;;;;18.63;3.78;;;;;;;;;;4976503;28;20220;-81
2023/12/10 03:15:18;;;;;;;17.37;4.20;;;;;;;;;;4976580;28;20299;-85
2023/12/10 03:17:44;;;;;;;24.83;3.90;;;;;;;;;;4976032;28;20899;-84
2023/12/10 03:20:12;;;;;;;18.25;3.92;;;;;;;;;;4974648;28;20776;-83
2023/12/10 03:22:38;;;;;;;14.55;3.83;;;;;;;;;;4979301;28;20179;-85
2023/12/10 03:25:04;;;;;;;18.37;5.30;;;;;;;;;;4982575;28;20548;-84
2023/12/10 03:27:30;;;;;;;15.85;3.20;;;;;;;;;;4983080;28;20418;-85
2023/12/10 03:29:56;;;;;;;18.13;3.78;;;;;;;;;;4982642;28;20263;-82
2023/12/10 03:32:22;;;;;;;14.38;2.85;;;;;;;;;;4982474;28;20679;-81
2023/12/10 03:34:48;;;;;;;12.55;3.47;;;;;;;;;;4981799;28;20180;-83
2023/12/10 03:37:14;;;;;;;24.88;5.53;;;;;;;;;;4982789;28;20203;-80
2023/12/10 03:39:40;;;;;;;21.52;4.25;;;;;;;;;;4983320;28;20176;-81
2023/12/10 03:42:06;;;;;;;22.70;5.90;;;;;;;;;;4983201;28;20199;-80
2023/12/10 03:44:32;;;;;;;17.57;3.83;;;;;;;;;;4983158;28;20419;-81
2023/12/10 03:47:01;;;;;;;16.60;3.75;;;;;;;;;;4982674;28;20423;-83
2023/12/10 03:49:28;;;;;;;18.25;3.05;;;;;;;;;;4982693;28;20237;-81
2023/12/10 03:51:56;;;;;;;30.83;4.63;;;;;;;;;;4983325;28;20509;-81
2023/12/10 03:54:22;;;;;;;17.13;3.90;;;;;;;;;;4981847;28;20239;-80
2023/12/10 03:56:48;;;;;;;22.30;4.00;;;;;;;;;;4983308;28;20179;-81
2023/12/10 03:59:14;;;;;;;15.40;3.37;;;;;;;;;;4982913;28;20180;-79
2023/12/10 04:01:43;;;;;;;19.37;3.47;;;;;;;;;;4983552;28;20404;-78
2023/12/10 04:04:10;;;;;;;19.13;3.35;;;;;;;;;;4983476;28;20918;-78
2023/12/10 04:06:42;;;;;;;18.77;4.75;;;;;;;;;;4983817;28;20251;-78
2023/12/10 04:09:09;;;;;;;14.52;4.60;;;;;;;;;;4983345;28;20693;-78
2023/12/10 04:11:35;;;;;;;20.77;3.78;;;;;;;;;;4983587;28;20595;-78
2023/12/10 04:14:02;;;;;;;15.48;3.63;;;;;;;;;;4983555;28;20284;-79
2023/12/10 04:16:30;;;;;;;20.98;4.80;;;;;;;;;;4983339;28;20180;-78
2023/12/10 04:18:56;;;;;;;11.20;3.22;;;;;;;;;;4982903;28;20783;-79
2023/12/10 04:21:23;;;;;;;19.00;5.07;;;;;;;;;;4983479;28;20331;-79
2023/12/10 04:23:49;;;;;;;24.85;4.90;;;;;;;;;;4983105;28;20187;-79
2023/12/10 04:26:15;;;;;;;19.48;3.63;;;;;;;;;;4983741;28;20180;-79
2023/12/10 04:28:42;;;;;;;18.40;4.45;;;;;;;;;;4983073;28;20202;-82
2023/12/10 04:31:08;;;;;;;23.65;4.85;;;;;;;;;;4983357;28;20172;-80
2023/12/10 04:33:34;;;;;;;24.05;5.57;;;;;;;;;;4981956;28;20232;-80
2023/12/10 04:36:00;;;;;;;26.67;5.20;;;;;;;;;;4978624;28;20540;-79
2023/12/10 04:38:27;;;;;;;15.32;4.25;;;;;;;;;;4980377;28;20214;-79
2023/12/10 04:40:54;;;;;;;19.30;4.63;;;;;;;;;;4980343;28;20184;-80
2023/12/10 04:43:20;;;;;;;24.17;5.23;;;;;;;;;;4980151;28;20716;-79
2023/12/10 04:45:46;;;;;;;18.55;4.50;;;;;;;;;;4979808;28;20750;-79
2023/12/10 04:48:15;;;;;;;20.63;5.65;;;;;;;;;;4979797;28;20184;-79
2023/12/10 04:50:41;;;;;;;16.85;4.25;;;;;;;;;;4979490;28;20343;-79
2023/12/10 04:53:07;;;;;;;9.75;3.75;;;;;;;;;;4980044;28;20226;-79
2023/12/10 04:55:33;;;;;;;9.80;3.17;;;;;;;;;;4979799;28;20263;-79
2023/12/10 04:58:00;;;;;;;28.58;4.72;;;;;;;;;;4979684;28;20191;-80
2023/12/10 05:00:26;;;;;;;21.73;4.30;;;;;;;;;;4979481;28;20510;-79
2023/12/10 05:02:52;;;;;;;17.25;3.88;;;;;;;;;;4978962;28;20182;-79
2023/12/10 05:05:18;;;;;;;18.48;3.88;;;;;;;;;;4978535;28;20173;-79
2023/12/10 05:07:44;;;;;;;19.85;4.15;;;;;;;;;;4978430;28;20573;-81
2023/12/10 05:10:10;;;;;;;15.65;3.75;;;;;;;;;;4979171;28;20188;-80
2023/12/10 05:12:36;;;;;;;23.67;3.80;;;;;;;;;;4979072;28;20208;-80
2023/12/10 05:15:02;;;;;;;16.23;4.77;;;;;;;;;;4979081;28;20234;-81
2023/12/10 05:17:28;;;;;;;15.65;3.40;;;;;;;;;;4978380;28;20428;-80
2023/12/10 05:19:54;;;;;;;16.90;4.73;;;;;;;;;;4978457;28;20660;-79
2023/12/10 05:22:20;;;;;;;22.10;3.63;;;;;;;;;;4978640;28;20404;-79
2023/12/10 05:24:46;;;;;;;20.20;4.28;;;;;;;;;;4978162;28;20502;-79
2023/12/10 05:27:13;;;;;;;16.17;4.18;;;;;;;;;;4978708;28;20257;-81
2023/12/10 05:29:39;;;;;;;14.63;3.92;;;;;;;;;;4978897;28;20184;-83
2023/12/10 05:32:05;;;;;;;19.15;5.00;;;;;;;;;;4978266;28;20584;-80
2023/12/10 05:34:31;;;;;;;23.85;5.00;;;;;;;;;;4978002;28;20212;-83
2023/12/10 05:36:57;;;;;;;20.07;3.67;;;;;;;;;;4979116;28;20228;-80
2023/12/10 05:39:23;;;;;;;12.35;3.63;;;;;;;;;;4977926;28;20423;-82
2023/12/10 05:41:49;;;;;;;23.73;5.80;;;;;;;;;;4978117;28;20184;-81
2023/12/10 05:44:15;;;;;;;17.93;3.00;;;;;;;;;;4977607;28;20191;-81
2023/12/10 05:46:41;;;;;;;13.60;3.53;;;;;;;;;;4977351;28;20412;-80
2023/12/10 05:49:07;;;;;;;24.13;4.40;;;;;;;;;;4978511;28;20510;-81
2023/12/10 05:51:33;;;;;;;22.50;4.40;;;;;;;;;;4977949;28;20490;-81
2023/12/10 05:53:59;;;;;;;14.30;4.13;;;;;;;;;;4978511;28;20231;-81
2023/12/10 05:56:25;;;;;;;24.27;5.55;;;;;;;;;;4977939;28;20179;-81
2023/12/10 05:58:51;;;;;;;22.57;4.40;;;;;;;;;;4977877;28;20263;-81
2023/12/10 06:01:17;;;;;;;14.68;3.47;;;;;;;;;;4977825;28;20458;-81
2023/12/10 06:03:43;;;;;;;17.77;4.30;;;;;;;;;;4977606;28;20192;-81
2023/12/10 06:06:09;;;;;;;16.17;3.45;;;;;;;;;;4977556;28;20408;-80
2023/12/10 06:08:35;;;;;;;18.30;4.53;;;;;;;;;;4977658;28;20242;-80
2023/12/10 06:11:01;;;;;;;18.05;4.70;;;;;;;;;;4977725;28;20404;-81
2023/12/10 06:13:28;;;;;;;15.20;3.80;;;;;;;;;;4976950;28;20243;-81
2023/12/10 06:15:56;;;;;;;12.10;3.22;;;;;;;;;;4977001;28;20180;-81
2023/12/10 06:18:22;;;;;;;22.63;5.00;;;;;;;;;;4976703;28;20292;-81
2023/12/10 06:20:48;;;;;;;15.03;4.10;;;;;;;;;;4977418;28;20325;-81
2023/12/10 06:23:14;;;;;;;17.70;5.33;;;;;;;;;;4975844;28;20426;-83
2023/12/10 06:25:40;;;;;;;15.37;3.90;;;;;;;;;;4976382;28;20482;-81
2023/12/10 06:28:06;;;;;;;16.13;3.67;;;;;;;;;;4976217;28;20412;-82
2023/12/10 06:30:32;;;;;;;22.73;4.40;;;;;;;;;;4976593;28;20266;-82
2023/12/10 06:32:58;;;;;;;18.00;4.00;;;;;;;;;;4976926;28;20823;-81
2023/12/10 06:35:24;;;;;;;24.43;5.80;;;;;;;;;;4977253;28;20404;-82
2023/12/10 06:37:50;;;;;;;18.87;4.27;;;;;;;;;;4976905;28;20907;-81
2023/12/10 06:40:16;;;;;;;24.92;4.68;;;;;;;;;;4976142;28;20415;-82
2023/12/10 06:42:42;;;;;;;18.55;2.72;;;;;;;;;;4976879;28;20176;-89
2023/12/10 06:45:08;;;;;;;13.95;3.53;;;;;;;;;;4976729;28;20353;-86
2023/12/10 06:47:34;;;;;;;12.25;3.28;;;;;;;;;;4976614;28;20790;-84
2023/12/10 06:50:00;;;;;;;32.80;5.05;;;;;;;;;;4976527;28;20180;-85
2023/12/10 06:52:26;;;;;;;19.80;4.32;;;;;;;;;;4976734;28;20186;-87
2023/12/10 06:54:52;;;;;;;12.75;3.30;;;;;;;;;;4976807;28;20211;-88
2023/12/10 06:57:18;;;;;;;10.00;3.13;;;;;;;;;;4975717;28;20179;-84
2023/12/10 06:59:44;;;;;;;17.60;3.88;;;;;;;;;;4975734;28;20412;-86
2023/12/10 07:02:10;;;;;;;11.13;3.80;;;;;;;;;;4977201;28;20540;-86
2023/12/10 07:04:37;;;;;;;18.63;4.25;;;;;;;;;;4977072;28;20411;-85
2023/12/10 07:07:03;;;;;;;17.23;4.45;;;;;;;;;;4976757;28;20654;-84
2023/12/10 07:09:29;;;;;;;19.30;2.70;;;;;;;;;;4976832;28;20211;-86
2023/12/10 07:11:55;;;;;;;19.63;3.80;;;;;;;;;;4976879;28;20180;-84
2023/12/10 07:14:21;;;;;;;25.03;4.77;;;;;;;;;;4976677;28;20558;-87
2023/12/10 07:16:47;;;;;;;15.37;5.10;;;;;;;;;;4976826;28;20402;-86
2023/12/10 07:19:12;;;;;;;13.18;3.13;;;;;;;;;;4976543;28;20424;-86
2023/12/10 07:21:39;;;;;;;13.30;3.13;;;;;;;;;;4976456;28;20644;-88
2023/12/10 07:24:05;;;;;;;16.48;4.05;;;;;;;;;;4976381;28;20415;-85
2023/12/10 07:26:31;;;;;;;23.65;5.55;;;;;;;;;;4976292;28;20181;-83
2023/12/10 07:28:57;;;;;;;11.70;3.65;;;;;;;;;;4976408;28;20179;-85
2023/12/10 07:31:23;;;;;;;14.80;3.53;;;;;;;;;;4976032;28;20503;-88
2023/12/10 07:33:49;;;;;;;20.40;3.55;;;;;;;;;;4976361;28;20477;-84
2023/12/10 07:36:15;;;;;;;22.73;3.20;;;;;;;;;;4976412;28;20176;-85
2023/12/10 07:38:41;;;;;;;12.13;3.20;;;;;;;;;;4975934;28;20999;-88
2023/12/10 07:41:07;;;;;;;18.02;3.90;;;;;;;;;;4975966;28;20202;-84
2023/12/10 07:43:33;;;;;;;17.90;3.03;;;;;;;;;;4975561;28;20176;-83
2023/12/10 07:45:59;;;;;;;25.65;3.25;;;;;;;;;;4976229;28;20416;-86
2023/12/10 07:48:27;;;;;;;16.27;3.13;;;;;;;;;;4976245;28;20239;-86
2023/12/10 07:50:53;;;;;;;21.38;4.75;;;;;;;;;;4976341;28;20191;-87
2023/12/10 07:53:19;;;;;;;15.53;3.47;;;;;;;;;;4975776;28;20204;-90
2023/12/10 07:55:45;;;;;;;18.13;4.10;;;;;;;;;;4976143;28;20482;-85
2023/12/10 07:58:11;;;;;;;22.40;3.90;;;;;;;;;;4974787;28;20440;-86
2023/12/10 08:00:38;;;;;;;18.08;3.40;;;;;;;;;;4975661;28;20477;-85
2023/12/10 08:03:05;;;;;;;9.05;3.75;;;;;;;;;;4975416;28;20200;-85
2023/12/10 08:05:31;;;;;;;19.00;3.90;;;;;;;;;;4975846;28;20186;-85
2023/12/10 08:08:02;;;;;;;15.13;4.37;;;;;;;;;;4975986;28;20315;-86
2023/12/10 08:10:28;;;;;;;17.48;3.30;;;;;;;;;;4979387;28;20419;-87
2023/12/10 08:12:54;;;;;;;12.70;2.65;;;;;;;;;;4979258;28;20244;-86
2023/12/10 08:15:21;;;;;;;18.98;4.03;;;;;;;;;;4979566;28;20164;-86
2023/12/10 08:17:47;;;;;;;17.63;3.30;;;;;;;;;;4979410;28;20180;-86
2023/12/10 08:20:13;;;;;;;12.93;3.45;;;;;;;;;;4979977;28;20189;-86
2023/12/10 08:22:39;;;;;;;13.57;4.93;;;;;;;;;;4978997;28;20211;-86
2023/12/10 08:25:05;;;;;;;19.98;3.55;;;;;;;;;;4979720;28;20183;-84
2023/12/10 08:27:31;;;;;;;16.40;3.60;;;;;;;;;;4978778;28;20267;-86
2023/12/10 08:29:58;;;;;;;16.85;3.50;;;;;;;;;;4978498;28;20211;-84
2023/12/10 08:32:24;;;;;;;11.82;4.00;;;;;;;;;;4979214;28;20183;-85
2023/12/10 08:34:50;;;;;;;13.18;2.92;;;;;;;;;;4979064;28;20257;-86
2023/12/10 08:37:16;;;;;;;13.60;3.95;;;;;;;;;;4978734;28;20515;-86
2023/12/10 08:39:42;;;;;;;11.93;3.22;;;;;;;;;;4977048;28;20283;-87
2023/12/10 08:42:08;;;;;;;21.45;4.45;;;;;;;;;;4979113;28;20182;-82
2023/12/10 08:44:34;;;;;;;14.97;2.80;;;;;;;;;;4979526;28;20184;-82
2023/12/10 08:47:00;;;;;;;21.10;3.60;;;;;;;;;;4978663;28;20416;-81
2023/12/10 08:49:26;;;;;;;18.45;4.18;;;;;;;;;;4977650;28;21019;-84
2023/12/10 08:51:52;;;;;;;15.95;3.80;;;;;;;;;;4978652;28;20179;-84
2023/12/10 08:54:18;;;;;;;16.83;4.63;;;;;;;;;;4978334;28;20215;-84
2023/12/10 08:56:45;;;;;;;15.70;4.93;;;;;;;;;;4978351;28;20412;-84
2023/12/10 08:59:11;;;;;;;12.10;2.78;;;;;;;;;;4978647;28;20408;-83
2023/12/10 09:01:37;;;;;;;23.58;5.45;;;;;;;;;;4978566;28;20188;-83
2023/12/10 09:04:05;;;;;;;19.13;4.03;;;;;;;;;;4978237;28;20190;-84
2023/12/10 09:06:31;;;;;;;14.60;3.47;;;;;;;;;;4978539;28;20199;-84
2023/12/10 09:08:57;;;;;;;13.52;2.75;;;;;;;;;;4979279;28;20314;-84
2023/12/10 09:11:23;;;;;;;22.13;3.90;;;;;;;;;;4978651;28;20263;-88
2023/12/10 09:13:49;;;;;;;11.85;3.83;;;;;;;;;;4978294;28;20475;-84
2023/12/10 09:16:17;;;;;;;16.40;4.35;;;;;;;;;;4978507;28;20614;-83
2023/12/10 09:18:43;;;;;;;12.82;3.28;;;;;;;;;;4978541;28;20188;-85
2023/12/10 09:21:09;;;;;;;18.67;3.45;;;;;;;;;;4976885;28;20674;-83
2023/12/10 09:23:35;;;;;;;15.50;2.92;;;;;;;;;;4977763;28;20628;-82
2023/12/10 09:26:02;;;;;;;13.32;3.20;;;;;;;;;;4978315;28;20177;-83
2023/12/10 09:28:28;;;;;;;17.02;3.72;;;;;;;;;;4977995;28;20266;-82
2023/12/10 09:30:54;;;;;;;19.50;3.70;;;;;;;;;;4978322;28;20172;-83
2023/12/10 09:33:20;;;;;;;20.00;4.47;;;;;;;;;;4978358;28;20204;-82
2023/12/10 09:35:46;;;;;;;15.07;2.90;;;;;;;;;;4977785;28;20624;-83
2023/12/10 09:38:12;;;;;;;15.77;3.10;;;;;;;;;;4977409;28;20408;-82
2023/12/10 09:40:39;;;;;;;15.77;4.70;;;;;;;;;;4978073;28;20172;-81
2023/12/10 09:43:05;;;;;;;8.45;2.88;;;;;;;;;;4978432;28;20561;-82
2023/12/10 09:45:32;;;;;;;17.60;4.18;;;;;;;;;;4978022;28;20259;-82
2023/12/10 09:47:59;;;;;;;12.88;4.43;;;;;;;;;;4978696;28;20191;-81
2023/12/10 09:50:25;;;;;;;21.08;4.38;;;;;;;;;;4978511;28;20176;-81
2023/12/10 09:52:51;;;;;;;17.47;3.00;;;;;;;;;;4978088;28;20215;-82
2023/12/10 09:55:17;;;;;;;13.90;3.70;;;;;;;;;;4978730;28;20403;-81
2023/12/10 09:57:43;;;;;;;13.65;3.95;;;;;;;;;;4977694;28;20562;-84
2023/12/10 10:00:10;;;;;;;11.07;3.20;;;;;;;;;;4978119;28;20184;-86
2023/12/10 10:02:36;;;;;;;16.23;4.00;;;;;;;;;;4977611;28;20656;-81
2023/12/10 10:05:03;;;;;;;17.70;3.50;;;;;;;;;;4978013;28;20177;-82
2023/12/10 10:07:30;;;;;;;16.35;4.00;;;;;;;;;;4977374;28;20238;-85
2023/12/10 10:09:56;;;;;;;16.10;3.40;;;;;;;;;;4977859;28;20180;-83
2023/12/10 10:12:22;;;;;;;14.95;4.18;;;;;;;;;;4976823;28;20187;-81
2023/12/10 10:14:57;;;;;;;16.08;3.85;;;;;;;;;;4977197;28;20197;-85
2023/12/10 10:17:30;;;;;;;18.45;4.15;;;;;;;;;;4977181;28;20601;-85
2023/12/10 10:19:56;;;;;;;11.40;2.35;;;;;;;;;;4977020;28;20199;-88
2023/12/10 10:22:26;;;;;;;15.43;3.55;;;;;;;;;;4977888;28;20259;-89
2023/12/10 10:24:52;;;;;;;13.98;4.13;;;;;;;;;;4976851;28;20557;-87
2023/12/10 10:27:18;;;;;;;12.68;3.53;;;;;;;;;;4976902;28;20173;-87
2023/12/10 10:29:45;;;;;;;14.38;3.45;;;;;;;;;;4976901;28;20183;-91
2023/12/10 10:32:18;;;;;;;13.88;2.85;;;;;;;;;;4977210;28;20195;-83
2023/12/10 10:34:46;;;;;;;17.42;4.10;;;;;;;;;;4976492;28;20320;-83
2023/12/10 10:37:12;;;;;;;17.48;3.67;;;;;;;;;;4977397;28;20176;-85
2023/12/10 10:39:38;;;;;;;10.13;3.55;;;;;;;;;;4976741;28;20239;-83
2023/12/10 10:42:08;;;;;;;15.60;3.43;;;;;;;;;;4975340;28;20200;-83
2023/12/10 10:44:34;;;;;;;18.33;4.38;;;;;;;;;;4976963;28;20950;-84
2023/12/10 10:47:01;;;;;;;18.63;3.85;;;;;;;;;;4973257;28;20233;-84
2023/12/10 10:49:27;;;;;;;17.90;4.10;;;;;;;;;;4957781;29;20185;-83
2023/12/10 10:51:54;;;;;;;23.75;4.93;;;;;;;;;;4957227;28;20181;-84
2023/12/10 10:54:21;;;;;;;17.58;5.63;;;;;;;;;;4957031;28;20212;-83
2023/12/10 10:56:47;;;;;;;35.58;5.72;;;;;;;;;;4957364;28;20192;-82
2023/12/10 10:59:32;;;;;;;14.63;3.10;;;;;;;;;;4957289;29;20244;-82
2023/12/10 11:02:01;;;;;;;11.75;3.33;;;;;;;;;;4957201;28;20181;-84
2023/12/10 11:04:33;;;;;;;13.13;3.22;;;;;;;;;;4958630;29;20200;-84
2023/12/10 11:07:00;;;;;;;20.58;4.18;;;;;;;;;;4958041;28;20243;-82
2023/12/10 11:09:28;;;;;;;23.23;3.72;;;;;;;;;;4957208;28;20185;-85
2023/12/10 11:11:54;;;;;;;15.57;4.13;;;;;;;;;;4956801;28;20173;-83
2023/12/10 11:14:24;;;;;;;14.98;4.10;;;;;;;;;;4956283;29;20259;-84
2023/12/10 11:16:50;;;;;;;12.40;3.22;;;;;;;;;;4956156;29;20209;-82
2023/12/10 11:19:21;;;;;;;23.38;6.47;;;;;;;;;;4960899;28;20207;-82
2023/12/10 11:21:48;;;;;;;18.88;5.00;;;;;;;;;;4958779;28;20243;-81
2023/12/10 11:24:14;;;;;;;15.70;3.42;;;;;;;;;;4957601;29;20204;-83
2023/12/10 11:26:40;;;;;;;22.92;4.05;;;;;;;;;;4956194;28;20267;-81
2023/12/10 11:29:07;;;;;;;17.33;3.50;;;;;;;;;;4957084;28;20265;-86
2023/12/10 11:31:34;;;;;;;16.63;3.95;;;;;;;;;;4956687;28;20413;-85
2023/12/10 11:34:00;;;;;;;17.30;3.35;;;;;;;;;;4955950;29;20312;-82
2023/12/10 11:36:26;;;;;;;16.25;4.43;;;;;;;;;;4956829;28;20216;-83
2023/12/10 11:38:52;;;;;;;20.87;3.50;;;;;;;;;;4956222;28;20184;-82
2023/12/10 11:41:18;;;;;;;30.27;5.67;;;;;;;;;;4955825;28;20441;-83
2023/12/10 11:43:45;;;;;;;18.13;4.68;;;;;;;;;;4958119;28;20423;-82
2023/12/10 11:46:11;;;;;;;21.88;5.25;;;;;;;;;;4960877;29;20180;-83
2023/12/10 11:48:37;;;;;;;20.25;4.25;;;;;;;;;;4959529;28;20267;-82
2023/12/10 11:51:04;;;;;;;15.40;3.25;;;;;;;;;;4975672;28;20188;-82
2023/12/10 11:53:35;;;;;;;25.88;4.68;;;;;;;;;;4960269;28;20304;-81
2023/12/10 11:56:01;;;;;;;16.90;3.30;;;;;;;;;;4959280;29;20185;-82
2023/12/10 11:58:27;;;;;;;17.10;3.75;;;;;;;;;;4960362;28;20209;-81
2023/12/10 12:01:00;;;;;;;23.95;3.70;;;;;;;;;;4960092;29;20660;-81
2023/12/10 12:03:27;;;;;;;19.25;4.28;;;;;;;;;;4960412;29;20183;-82
2023/12/10 12:05:53;;;;;;;20.67;4.78;;;;;;;;;;4960028;28;20223;-82
2023/12/10 12:08:26;;;;;;;34.10;7.55;;;;;;;;;;4960524;28;20236;-82
2023/12/10 12:10:52;;;;;;;17.00;3.88;;;;;;;;;;4957564;28;20239;-82
2023/12/10 12:13:18;;;;;;;14.88;3.78;;;;;;;;;;4959695;28;20204;-83
2023/12/10 12:15:45;;;;;;;29.73;5.90;;;;;;;;;;4960095;28;20589;-82
2023/12/10 12:18:11;;;;;;;21.23;4.22;;;;;;;;;;4957293;28;20625;-82
2023/12/10 12:20:37;;;;;;;13.00;4.15;;;;;;;;;;4967737;28;20652;-82
2023/12/10 12:23:04;;;;;;;25.15;3.85;;;;;;;;;;4979430;28;20188;-83
2023/12/10 12:25:34;;;;;;;17.10;4.20;;;;;;;;;;4979283;28;20548;-81
2023/12/10 12:28:00;;;;;;;22.58;4.13;;;;;;;;;;4979612;28;20414;-82
2023/12/10 12:30:26;;;;;;;27.65;4.22;;;;;;;;;;4979398;28;20239;-82
2023/12/10 12:32:52;;;;;;;22.73;4.85;;;;;;;;;;4993910;28;20204;-82
2023/12/10 12:35:18;;;;;;;26.02;3.83;;;;;;;;;;4979231;28;20192;-82
2023/12/10 12:37:44;;;;;;;21.40;3.93;;;;;;;;;;4994674;28;20176;-82
2023/12/10 12:40:11;;;;;;;19.60;4.60;;;;;;;;;;4979022;28;20780;-82
2023/12/10 12:42:37;;;;;;;17.02;4.30;;;;;;;;;;4977538;28;20196;-82
2023/12/10 12:45:03;;;;;;;17.40;4.00;;;;;;;;;;4994038;28;20185;-82
2023/12/10 12:47:29;;;;;;;25.98;4.97;;;;;;;;;;4978634;28;20203;-83
2023/12/10 12:49:55;;;;;;;20.58;4.45;;;;;;;;;;4978313;28;20247;-82
2023/12/10 12:52:21;;;;;;;14.48;3.70;;;;;;;;;;4994010;28;20211;-82
2023/12/10 12:54:47;;;;;;;21.67;4.57;;;;;;;;;;4977284;28;20220;-82
2023/12/10 12:57:13;;;;;;;19.48;4.15;;;;;;;;;;4994057;28;20427;-82
2023/12/10 12:59:40;;;;;;;16.70;3.72;;;;;;;;;;4978647;28;20173;-82
2023/12/10 13:02:06;;;;;;;17.02;3.70;;;;;;;;;;4978835;28;20532;-82
2023/12/10 13:04:32;;;;;;;19.95;4.07;;;;;;;;;;4978493;28;20223;-82
2023/12/10 13:06:59;;;;;;;25.20;4.75;;;;;;;;;;4977971;28;20239;-82
2023/12/10 13:09:25;;;;;;;13.90;3.88;;;;;;;;;;4978503;28;20195;-82
2023/12/10 13:11:53;;;;;;;21.00;4.10;;;;;;;;;;4978397;28;20172;-82
2023/12/10 13:14:19;;;;;;;16.05;4.93;;;;;;;;;;4993172;28;20557;-82
2023/12/10 13:16:45;;;;;;;16.90;4.00;;;;;;;;;;4978494;28;20583;-83
2023/12/10 13:19:11;;;;;;;23.80;5.00;;;;;;;;;;4978503;28;20419;-82
2023/12/10 13:21:37;;;;;;;27.02;3.88;;;;;;;;;;4978521;28;20416;-88
2023/12/10 13:24:03;;;;;;;17.40;3.00;;;;;;;;;;4978874;28;20188;-81
2023/12/10 13:26:29;;;;;;;20.67;3.17;;;;;;;;;;4978300;28;20176;-82
2023/12/10 13:28:56;;;;;;;16.43;4.77;;;;;;;;;;4977931;28;20180;-82
2023/12/10 13:31:21;;;;;;;23.80;4.93;;;;;;;;;;4977960;28;20450;-82
2023/12/10 13:33:47;;;;;;;18.27;3.73;;;;;;;;;;4977815;28;20212;-82
2023/12/10 13:36:13;;;;;;;19.03;4.30;;;;;;;;;;4978246;28;20420;-82
2023/12/10 13:38:39;;;;;;;21.37;3.83;;;;;;;;;;4977685;28;20759;-83
2023/12/10 13:41:05;;;;;;;19.60;4.30;;;;;;;;;;4977873;28;20408;-81
2023/12/10 13:43:31;;;;;;;23.60;4.80;;;;;;;;;;4978359;28;20446;-82
2023/12/10 13:45:57;;;;;;;12.40;2.93;;;;;;;;;;4977828;28;20176;-82
2023/12/10 13:48:23;;;;;;;21.30;4.32;;;;;;;;;;4978453;28;20416;-82
2023/12/10 13:50:50;;;;;;;18.70;4.40;;;;;;;;;;4977687;28;20275;-82
2023/12/10 13:53:17;;;;;;;17.08;4.70;;;;;;;;;;4977925;28;20491;-81
2023/12/10 13:55:43;;;;;;;18.10;4.35;;;;;;;;;;4977883;28;20268;-83
2023/12/10 13:58:09;;;;;;;18.42;3.83;;;;;;;;;;4976173;28;20679;-82
2023/12/10 14:00:35;;;;;;;15.23;3.70;;;;;;;;;;4977734;28;20172;-83
2023/12/10 14:03:01;;;;;;;16.33;4.30;;;;;;;;;;4977199;28;20176;-82
2023/12/10 14:05:28;;;;;;;17.65;5.05;;;;;;;;;;4977030;28;20435;-82
2023/12/10 14:07:54;;;;;;;19.50;4.40;;;;;;;;;;4975550;28;20236;-82
2023/12/10 14:10:20;;;;;;;14.32;4.40;;;;;;;;;;4977551;28;20184;-82
2023/12/10 14:12:46;;;;;;;17.15;4.50;;;;;;;;;;4977241;28;20521;-82
2023/12/10 14:15:12;;;;;;;18.65;4.30;;;;;;;;;;4977166;28;20183;-82
2023/12/10 14:17:39;;;;;;;19.27;3.30;;;;;;;;;;4977230;28;20536;-82
2023/12/10 14:20:08;;;;;;;17.90;4.60;;;;;;;;;;4976723;28;20184;-82
2023/12/10 14:22:36;;;;;;;16.98;5.28;;;;;;;;;;4977375;28;20195;-82
2023/12/10 14:25:02;;;;;;;11.20;4.10;;;;;;;;;;4976684;28;20227;-82